Time;durP1;ratioP1;P1;durP2;ratioP2;P2;SDS_P1;SDS_P2;PMS_P1;PMS_P2;Temp;Humidity;BMP_temperature;BMP_pressure;BME280_temperature;BME280_humidity;BME280_pressure;Samples;Min_cycle;Max_cycle;Signal;HPM_P1;HPM_P2
2023/07/05 00:02:01;;;;;;;14.18;2.25;;;44.70;16.00;;;;;;5037240;28;20049;-61
2023/07/05 00:04:27;;;;;;;22.90;2.67;;;44.60;16.10;;;;;;5030609;28;20437;-62
2023/07/05 00:06:54;;;;;;;13.20;2.17;;;44.50;16.00;;;;;;5029942;28;20100;-62
2023/07/05 00:09:21;;;;;;;9.13;1.90;;;44.50;16.10;;;;;;5029831;28;20029;-62
2023/07/05 00:11:47;;;;;;;41.65;4.43;;;44.30;15.80;;;;;;5032828;28;20037;-66
2023/07/05 00:14:14;;;;;;;19.20;2.60;;;44.10;15.50;;;;;;5035010;28;20025;-61
2023/07/05 00:16:40;;;;;;;30.05;2.78;;;44.00;15.30;;;;;;5029582;28;20041;-64
2023/07/05 00:19:08;;;;;;;35.85;3.78;;;43.90;15.30;;;;;;5030926;28;20064;-63
2023/07/05 00:21:35;;;;;;;34.67;3.58;;;43.80;15.00;;;;;;5027514;28;20460;-62
2023/07/05 00:24:01;;;;;;;7.88;2.28;;;43.80;15.80;;;;;;5036109;28;21385;-62
2023/07/05 00:26:28;;;;;;;14.15;2.13;;;43.70;15.20;;;;;;5027413;28;20109;-64
2023/07/05 00:28:54;;;;;;;12.77;2.03;;;43.70;15.10;;;;;;5028118;28;20028;-64
2023/07/05 00:31:20;;;;;;;18.92;2.00;;;43.60;15.00;;;;;;5029782;28;20366;-60
2023/07/05 00:33:47;;;;;;;6.40;1.98;;;43.60;15.10;;;;;;5035108;28;20024;-62
2023/07/05 00:36:14;;;;;;;6.78;1.80;;;43.50;15.00;;;;;;5028155;28;20032;-60
2023/07/05 00:38:40;;;;;;;10.45;2.30;;;43.40;14.90;;;;;;5033706;28;20041;-65
2023/07/05 00:41:07;;;;;;;10.43;2.00;;;43.40;14.80;;;;;;5027588;28;20436;-62
2023/07/05 00:43:33;;;;;;;13.52;2.20;;;43.20;15.10;;;;;;5027765;28;20462;-64
2023/07/05 00:46:10;;;;;;;13.32;2.20;;;43.20;14.90;;;;;;5030526;28;20397;-60
2023/07/05 00:48:47;;;;;;;11.27;1.88;;;43.20;15.00;;;;;;5030598;28;20071;-65
2023/07/05 00:51:26;;;;;;;19.08;2.45;;;43.20;15.70;;;;;;5031540;28;20013;-63
2023/07/05 00:53:57;;;;;;;5.40;1.70;;;43.10;15.00;;;;;;5027222;28;20550;-61
2023/07/05 00:56:43;;;;;;;15.40;2.22;;;43.00;15.00;;;;;;5037243;28;20048;-66
2023/07/05 00:59:13;;;;;;;10.18;2.58;;;42.90;14.80;;;;;;5039768;28;20021;-61
2023/07/05 01:01:40;;;;;;;11.68;1.67;;;42.90;14.60;;;;;;5026939;28;20108;-62
2023/07/05 01:04:07;;;;;;;14.65;1.80;;;42.80;14.50;;;;;;5026029;28;20097;-62
2023/07/05 01:06:34;;;;;;;8.88;2.17;;;42.70;14.40;;;;;;5027572;28;20355;-61
2023/07/05 01:09:01;;;;;;;6.78;1.60;;;42.60;14.50;;;;;;5027357;28;20033;-61
2023/07/05 01:11:33;;;;;;;10.18;1.80;;;42.50;14.40;;;;;;5031127;28;20037;-61
2023/07/05 01:14:12;;;;;;;6.47;1.75;;;42.50;14.50;;;;;;5027742;28;20048;-61
2023/07/05 01:16:50;;;;;;;9.50;1.67;;;42.40;14.30;;;;;;5027178;28;20009;-60
2023/07/05 01:19:53;;;;;;;9.80;2.00;;;42.40;14.40;;;;;;5030894;28;20021;-62
2023/07/05 01:22:54;;;;;;;3.75;1.50;;;42.40;14.20;;;;;;5031161;28;20010;-64
2023/07/05 01:25:30;;;;;;;3.03;1.65;;;42.40;14.10;;;;;;5031464;28;20033;-61
2023/07/05 01:28:11;;;;;;;;;;;42.30;14.00;;;;;;5026242;28;20016;-63
2023/07/05 01:31:10;;;;;;;3.00;1.70;;;42.30;14.30;;;;;;5028368;28;19905;-64
2023/07/05 01:33:58;;;;;;;4.72;1.63;;;42.20;14.30;;;;;;5007395;28;20025;-65
2023/07/05 01:36:27;;;;;;;8.32;2.00;;;42.20;14.30;;;;;;4998679;28;20022;-60
2023/07/05 01:38:54;;;;;;;22.25;2.15;;;42.10;14.70;;;;;;5005273;28;20053;-62
2023/07/05 01:41:22;;;;;;;10.38;1.60;;;42.00;14.40;;;;;;5007235;28;20071;-63
2023/07/05 01:43:49;;;;;;;8.05;1.70;;;41.90;14.30;;;;;;5005505;28;20045;-60
2023/07/05 01:46:27;;;;;;;9.35;1.90;;;41.80;14.30;;;;;;5006542;28;20036;-58
2023/07/05 01:49:00;;;;;;;11.32;2.53;;;41.80;15.40;;;;;;5007500;28;20018;-63
2023/07/05 01:51:53;;;;;;;7.18;2.08;;;41.70;15.10;;;;;;5004884;28;20037;-59
2023/07/05 01:54:31;;;;;;;15.90;2.22;;;41.60;15.10;;;;;;5006993;28;20029;-64
2023/07/05 01:57:20;;;;;;;10.30;1.95;;;41.40;15.20;;;;;;5005905;28;20060;-63
2023/07/05 01:59:59;;;;;;;5.63;1.90;;;41.20;15.30;;;;;;4996859;28;20026;-60
2023/07/05 02:02:31;;;;;;;10.00;2.05;;;41.10;15.70;;;;;;5006368;28;20084;-62
2023/07/05 02:05:00;;;;;;;10.65;2.65;;;41.10;15.60;;;;;;5010257;28;20033;-59
2023/07/05 02:07:29;;;;;;;10.05;3.00;;;41.00;15.80;;;;;;5023673;28;20285;-61
2023/07/05 02:09:58;;;;;;;6.28;2.13;;;40.90;15.90;;;;;;5015649;28;20033;-61
2023/07/05 02:12:26;;;;;;;12.93;3.05;;;40.90;15.10;;;;;;5028008;28;20049;-64
2023/07/05 02:14:53;;;;;;;7.88;2.58;;;40.80;15.90;;;;;;5025173;28;20060;-61
2023/07/05 02:17:20;;;;;;;6.72;2.25;;;40.70;15.50;;;;;;5027659;28;20643;-63
2023/07/05 02:19:46;;;;;;;16.25;3.13;;;40.60;16.40;;;;;;5034062;28;20381;-64
2023/07/05 02:22:13;;;;;;;5.72;2.00;;;40.40;15.70;;;;;;5035012;28;20017;-63
2023/07/05 02:24:39;;;;;;;10.20;2.58;;;40.20;15.50;;;;;;5029214;28;20053;-63
2023/07/05 02:27:06;;;;;;;8.63;2.03;;;40.20;15.70;;;;;;5027356;28;20017;-60
2023/07/05 02:29:33;;;;;;;8.07;2.22;;;40.10;15.20;;;;;;5024544;28;20010;-64
2023/07/05 02:32:00;;;;;;;7.80;1.85;;;40.00;14.70;;;;;;5028733;28;20613;-62
2023/07/05 02:34:28;;;;;;;10.35;1.70;;;39.90;14.30;;;;;;5029613;28;20075;-63
2023/07/05 02:36:55;;;;;;;5.35;1.60;;;39.80;13.90;;;;;;5037732;28;20089;-59
2023/07/05 02:39:21;;;;;;;11.65;2.20;;;39.80;14.00;;;;;;5030588;28;20009;-63
2023/07/05 02:41:47;;;;;;;8.98;2.35;;;39.80;14.80;;;;;;5025278;28;20045;-62
2023/07/05 02:44:14;;;;;;;5.43;2.30;;;39.70;15.50;;;;;;5031558;28;20505;-62
2023/07/05 02:46:40;;;;;;;8.77;2.10;;;39.60;15.40;;;;;;5029250;28;20037;-62
2023/07/05 02:49:07;;;;;;;5.35;2.30;;;39.40;15.50;;;;;;5033679;28;20507;-63
2023/07/05 02:51:33;;;;;;;10.88;2.10;;;39.30;15.50;;;;;;5033448;28;20490;-62
2023/07/05 02:53:59;;;;;;;7.18;2.22;;;39.20;15.30;;;;;;5035117;28;20017;-64
2023/07/05 02:56:26;;;;;;;6.18;2.35;;;39.10;15.70;;;;;;5034125;28;20025;-61
2023/07/05 02:58:52;;;;;;;17.15;2.35;;;39.00;15.60;;;;;;5033109;28;20105;-62
2023/07/05 03:01:19;;;;;;;17.25;2.40;;;38.90;16.40;;;;;;5043582;28;20022;-61
2023/07/05 03:03:45;;;;;;;17.23;2.67;;;38.80;15.80;;;;;;5030714;28;20036;-62
2023/07/05 03:06:11;;;;;;;12.38;2.30;;;38.80;16.10;;;;;;5029416;28;20021;-61
2023/07/05 03:08:38;;;;;;;10.23;2.50;;;38.70;16.20;;;;;;5029560;28;20101;-64
2023/07/05 03:11:05;;;;;;;14.52;2.40;;;38.60;16.50;;;;;;5030540;28;20036;-62
2023/07/05 03:13:33;;;;;;;12.75;2.60;;;38.50;16.60;;;;;;5032708;28;20093;-60
2023/07/05 03:16:00;;;;;;;14.27;2.63;;;38.40;16.20;;;;;;5031886;28;20029;-57
2023/07/05 03:18:28;;;;;;;13.82;2.70;;;38.30;16.50;;;;;;5030887;28;20046;-61
2023/07/05 03:20:55;;;;;;;13.75;2.22;;;38.20;16.50;;;;;;5030892;28;20101;-59
2023/07/05 03:23:22;;;;;;;10.77;2.45;;;38.20;16.50;;;;;;5031820;28;20025;-61
2023/07/05 03:26:00;;;;;;;9.57;2.58;;;38.10;16.80;;;;;;5034244;28;20056;-61
2023/07/05 03:28:29;;;;;;;10.70;2.72;;;38.00;16.40;;;;;;5029610;28;20039;-60
2023/07/05 03:31:05;;;;;;;13.75;2.90;;;38.00;16.70;;;;;;5029539;28;20437;-63
2023/07/05 03:33:33;;;;;;;9.88;2.55;;;37.80;15.90;;;;;;5037526;28;20009;-61
2023/07/05 03:36:10;;;;;;;8.20;2.58;;;37.70;16.20;;;;;;5029430;28;20573;-62
2023/07/05 03:38:36;;;;;;;11.82;2.35;;;37.60;15.60;;;;;;5032696;28;20109;-61
2023/07/05 03:41:18;;;;;;;19.10;2.80;;;37.60;15.70;;;;;;5032053;28;20464;-61
2023/07/05 03:43:48;;;;;;;18.98;2.78;;;37.60;15.90;;;;;;5032510;28;20042;-59
2023/07/05 03:46:16;;;;;;;16.60;2.63;;;37.50;15.20;;;;;;5029526;28;20055;-60
2023/07/05 03:48:44;;;;;;;14.07;2.42;;;37.40;15.20;;;;;;5029877;28;20055;-62
2023/07/05 03:51:14;;;;;;;15.07;2.45;;;37.40;15.00;;;;;;5038768;28;20042;-61
2023/07/05 03:53:40;;;;;;;12.60;1.92;;;37.40;15.30;;;;;;5036957;28;20109;-65
2023/07/05 03:56:09;;;;;;;12.32;2.38;;;37.40;15.10;;;;;;5029043;28;20053;-63
2023/07/05 03:58:39;;;;;;;13.70;2.80;;;37.30;14.80;;;;;;5030149;28;20050;-60
2023/07/05 04:01:17;;;;;;;18.13;3.13;;;37.20;15.10;;;;;;5029826;28;20473;-60
2023/07/05 04:03:53;;;;;;;20.20;3.28;;;37.20;14.70;;;;;;5029299;28;20083;-58
2023/07/05 04:06:21;;;;;;;15.32;3.80;;;37.10;14.50;;;;;;5039788;28;20481;-61
2023/07/05 04:08:48;;;;;;;14.35;3.20;;;37.10;14.70;;;;;;5032738;28;20611;-62
2023/07/05 04:11:14;;;;;;;23.02;3.35;;;36.90;14.20;;;;;;5030258;28;20057;-62
2023/07/05 04:13:41;;;;;;;20.55;3.30;;;36.90;14.60;;;;;;5032538;28;20045;-63
2023/07/05 04:16:19;;;;;;;23.88;3.58;;;36.90;14.70;;;;;;5034145;28;20053;-61
2023/07/05 04:18:47;;;;;;;18.45;2.60;;;36.80;14.50;;;;;;5032261;28;20055;-64
2023/07/05 04:21:13;;;;;;;22.10;3.05;;;36.70;14.10;;;;;;5031075;28;20500;-60
2023/07/05 04:23:40;;;;;;;12.35;3.15;;;36.60;14.10;;;;;;5028405;28;20142;-63
2023/07/05 04:26:07;;;;;;;18.42;3.08;;;36.60;14.60;;;;;;5031226;28;20074;-60
2023/07/05 04:28:34;;;;;;;17.58;3.22;;;36.60;14.60;;;;;;5033383;28;20189;-64
2023/07/05 04:31:02;;;;;;;25.10;3.65;;;36.50;14.80;;;;;;5028489;28;20049;-61
2023/07/05 04:33:29;;;;;;;14.27;3.17;;;36.50;14.40;;;;;;5031063;28;20044;-58
2023/07/05 04:35:59;;;;;;;17.52;3.30;;;36.40;14.50;;;;;;5031991;28;20048;-61
2023/07/05 04:38:25;;;;;;;16.10;3.28;;;36.30;14.40;;;;;;5031054;28;20085;-60
2023/07/05 04:40:53;;;;;;;14.60;3.15;;;36.20;14.50;;;;;;5029396;28;20101;-59
2023/07/05 04:43:19;;;;;;;17.15;3.97;;;36.20;14.70;;;;;;5034659;28;20393;-62
2023/07/05 04:45:50;;;;;;;29.38;4.50;;;36.20;14.50;;;;;;5029885;28;20132;-63
2023/07/05 04:48:16;;;;;;;20.35;6.10;;;36.10;14.70;;;;;;5036242;28;20085;-62
2023/07/05 04:50:45;;;;;;;32.38;8.05;;;36.00;14.90;;;;;;5031964;28;20045;-60
2023/07/05 04:53:11;;;;;;;24.80;10.20;;;36.00;15.50;;;;;;5027682;28;20090;-62
2023/07/05 04:55:47;;;;;;;27.73;10.02;;;36.00;16.10;;;;;;5028748;28;20054;-58
2023/07/05 04:58:15;;;;;;;30.38;11.38;;;35.90;16.60;;;;;;5027391;28;20045;-63
2023/07/05 05:00:49;;;;;;;26.27;11.90;;;35.90;16.70;;;;;;5032478;28;20059;-62
2023/07/05 05:03:23;;;;;;;31.92;12.50;;;35.80;16.70;;;;;;5027166;28;20079;-61
2023/07/05 05:05:52;;;;;;;35.72;11.93;;;35.80;16.80;;;;;;5028959;28;20074;-61
2023/07/05 05:08:23;;;;;;;40.67;12.82;;;35.70;17.10;;;;;;5027898;28;20138;-64
2023/07/05 05:10:57;;;;;;;35.28;12.57;;;35.60;17.30;;;;;;5027860;28;20105;-60
2023/07/05 05:13:24;;;;;;;35.38;11.55;;;35.60;17.50;;;;;;5033538;28;20076;-62
2023/07/05 05:15:51;;;;;;;43.03;11.95;;;35.50;17.80;;;;;;5026582;28;20067;-62
2023/07/05 05:18:18;;;;;;;33.20;12.82;;;35.40;17.60;;;;;;5027382;28;20649;-62
2023/07/05 05:20:46;;;;;;;27.02;12.50;;;35.40;17.60;;;;;;5027033;28;20071;-64
2023/07/05 05:23:16;;;;;;;42.45;12.80;;;35.40;18.10;;;;;;5060652;22;20087;-62
2023/07/05 05:25:45;;;;;;;38.92;11.80;;;35.30;18.30;;;;;;5068154;28;20533;-64
2023/07/05 05:28:13;;;;;;;47.08;12.85;;;35.30;18.10;;;;;;5065780;28;20178;-63
2023/07/05 05:30:43;;;;;;;33.40;13.18;;;35.20;17.90;;;;;;5050658;28;20142;-63
2023/07/05 05:33:10;;;;;;;24.25;12.93;;;35.20;17.80;;;;;;5065541;28;20525;-63
2023/07/05 05:35:37;;;;;;;35.90;13.45;;;35.10;18.00;;;;;;5087946;28;20069;-61
2023/07/05 05:38:04;;;;;;;33.15;13.02;;;35.00;17.50;;;;;;5087051;28;20145;-60
2023/07/05 05:40:34;;;;;;;33.35;11.75;;;35.00;17.60;;;;;;5085806;28;20054;-63
2023/07/05 05:43:05;;;;;;;37.47;11.43;;;34.90;17.20;;;;;;5067100;28;20207;-63
2023/07/05 05:45:31;;;;;;;30.30;10.55;;;34.80;16.70;;;;;;5069355;28;20060;-62
2023/07/05 05:47:58;;;;;;;26.17;10.23;;;34.80;16.90;;;;;;5068012;28;20115;-63
2023/07/05 05:50:41;;;;;;;21.52;8.55;;;34.80;16.70;;;;;;5088523;28;20120;-64
2023/07/05 05:53:10;;;;;;;24.40;7.57;;;34.80;16.30;;;;;;5086592;28;20057;-64
2023/07/05 05:55:38;;;;;;;24.00;6.60;;;34.80;16.20;;;;;;5068045;28;20057;-64
2023/07/05 05:58:06;;;;;;;16.75;5.60;;;34.80;15.60;;;;;;5068501;28;20060;-63
2023/07/05 06:00:37;;;;;;;18.05;5.20;;;34.70;15.20;;;;;;5068860;28;20097;-62
2023/07/05 06:03:04;;;;;;;19.65;4.60;;;34.70;15.50;;;;;;5068066;28;20557;-62
2023/07/05 06:05:33;;;;;;;21.38;6.00;;;34.60;15.10;;;;;;5069020;28;20565;-65
2023/07/05 06:08:00;;;;;;;25.58;5.97;;;34.60;14.70;;;;;;5067895;28;20531;-61
2023/07/05 06:10:27;;;;;;;12.68;4.03;;;34.60;14.50;;;;;;5087244;28;20060;-62
2023/07/05 06:13:03;;;;;;;17.75;4.18;;;34.60;13.90;;;;;;5069078;28;20201;-60
2023/07/05 06:15:29;;;;;;;13.98;4.30;;;34.60;14.40;;;;;;5069522;28;20070;-59
2023/07/05 06:17:56;;;;;;;28.63;5.50;;;34.60;14.00;;;;;;5068585;28;20064;-62
2023/07/05 06:20:27;;;;;;;18.25;5.20;;;34.60;14.30;;;;;;5087663;28;20079;-62
2023/07/05 06:22:53;;;;;;;13.82;3.75;;;34.50;14.20;;;;;;5085580;28;20059;-66
2023/07/05 06:25:21;;;;;;;10.23;3.70;;;34.60;13.80;;;;;;5083854;28;20078;-62
2023/07/05 06:27:48;;;;;;;16.42;3.55;;;34.50;13.60;;;;;;5085092;28;20060;-62
2023/07/05 06:30:15;;;;;;;13.13;3.10;;;34.50;13.80;;;;;;5083850;28;20528;-65
2023/07/05 06:32:43;;;;;;;11.77;3.35;;;34.40;14.10;;;;;;5084794;28;20585;-64
2023/07/05 06:35:10;;;;;;;13.80;3.80;;;34.40;13.60;;;;;;5064730;28;20155;-64
2023/07/05 06:37:37;;;;;;;12.90;3.83;;;34.30;13.30;;;;;;5083718;28;20072;-60
2023/07/05 06:40:04;;;;;;;8.85;3.80;;;34.30;13.90;;;;;;5082077;28;20552;-65
2023/07/05 06:42:30;;;;;;;12.68;4.05;;;34.30;13.60;;;;;;5083235;28;20521;-62
2023/07/05 06:44:56;;;;;;;11.25;4.43;;;34.20;13.50;;;;;;5085221;28;20076;-62
2023/07/05 06:47:23;;;;;;;9.70;4.03;;;34.20;13.50;;;;;;5085391;28;20067;-62
2023/07/05 06:49:49;;;;;;;10.02;3.40;;;34.20;13.20;;;;;;5092917;28;20127;-58
2023/07/05 06:52:16;;;;;;;13.10;3.50;;;34.20;13.30;;;;;;5085418;28;20051;-59
2023/07/05 06:54:42;;;;;;;11.00;3.72;;;34.10;13.00;;;;;;5089213;28;20525;-60
2023/07/05 06:57:09;;;;;;;12.27;3.60;;;34.20;13.00;;;;;;5084903;28;20769;-63
2023/07/05 06:59:35;;;;;;;7.07;3.05;;;34.10;13.00;;;;;;5085951;28;20068;-61
2023/07/05 07:02:01;;;;;;;8.82;2.58;;;34.00;13.10;;;;;;5084443;28;20053;-62
2023/07/05 07:04:29;;;;;;;10.60;3.30;;;34.10;13.50;;;;;;5084629;28;20167;-62
2023/07/05 07:06:56;;;;;;;10.70;2.92;;;34.00;13.40;;;;;;5084109;28;20107;-64
2023/07/05 07:09:22;;;;;;;13.57;2.92;;;33.90;13.00;;;;;;5083299;28;20062;-62
2023/07/05 07:11:48;;;;;;;13.85;2.90;;;33.90;12.80;;;;;;5082921;28;20639;-63
2023/07/05 07:14:15;;;;;;;12.40;2.78;;;33.80;13.10;;;;;;5082527;28;20064;-58
2023/07/05 07:16:41;;;;;;;13.05;2.70;;;33.90;12.80;;;;;;5085085;28;20067;-62
2023/07/05 07:19:08;;;;;;;9.10;2.50;;;33.90;12.50;;;;;;5083141;28;20092;-63
2023/07/05 07:21:35;;;;;;;10.50;3.22;;;33.90;12.40;;;;;;5083688;28;20065;-63
2023/07/05 07:24:01;;;;;;;10.68;2.80;;;34.00;12.60;;;;;;5083502;28;20510;-61
2023/07/05 07:26:28;;;;;;;10.50;3.08;;;33.90;12.70;;;;;;5084165;28;20076;-61
2023/07/05 07:28:56;;;;;;;8.68;2.40;;;33.80;12.70;;;;;;5081094;28;20059;-61
2023/07/05 07:31:29;;;;;;;15.20;2.83;;;33.80;12.80;;;;;;5087438;28;20066;-63
2023/07/05 07:33:56;;;;;;;12.77;3.10;;;33.90;12.90;;;;;;5084250;28;20065;-65
2023/07/05 07:36:28;;;;;;;10.48;2.67;;;33.80;13.00;;;;;;5088170;28;20141;-62
2023/07/05 07:38:55;;;;;;;9.60;3.53;;;33.70;13.20;;;;;;5086868;28;20507;-60
2023/07/05 07:41:26;;;;;;;7.25;3.00;;;33.70;13.00;;;;;;5086592;28;20116;-64
2023/07/05 07:43:54;;;;;;;7.40;3.25;;;33.70;12.90;;;;;;5086978;28;20059;-64
2023/07/05 07:46:24;;;;;;;6.45;2.75;;;33.70;13.00;;;;;;5088735;28;20069;-63
2023/07/05 07:48:53;;;;;;;7.18;2.67;;;33.70;13.20;;;;;;5088029;28;20088;-63
2023/07/05 07:51:23;;;;;;;13.30;2.88;;;33.70;13.30;;;;;;5085750;28;20064;-61
2023/07/05 07:53:52;;;;;;;36.72;4.25;;;33.60;13.40;;;;;;5086857;28;20112;-62
2023/07/05 07:56:21;;;;;;;11.63;2.67;;;33.60;13.60;;;;;;5088080;28;20116;-64
2023/07/05 07:58:49;;;;;;;3.38;2.22;;;33.50;13.50;;;;;;5087746;28;20062;-64
2023/07/05 08:01:27;;;;;;;6.43;2.28;;;33.50;13.50;;;;;;5085488;28;20099;-61
2023/07/05 08:03:56;;;;;;;9.93;2.60;;;33.50;13.80;;;;;;5087394;28;20067;-64
2023/07/05 08:06:51;;;;;;;4.68;2.30;;;33.40;13.60;;;;;;5085821;28;20064;-60
2023/07/05 08:09:23;;;;;;;2.90;2.22;;;33.30;13.70;;;;;;5087015;28;20064;-63
2023/07/05 08:11:49;;;;;;;5.53;2.38;;;33.30;13.50;;;;;;5085628;28;20444;-61
2023/07/05 08:14:17;;;;;;;9.82;2.40;;;33.30;13.60;;;;;;5088469;28;20530;-62
2023/07/05 08:16:45;;;;;;;8.20;2.35;;;33.30;13.50;;;;;;5085061;28;20077;-62
2023/07/05 08:19:11;;;;;;;8.98;2.05;;;33.30;13.70;;;;;;5083690;28;20144;-64
2023/07/05 08:21:38;;;;;;;6.28;2.35;;;33.20;13.40;;;;;;5085167;28;20107;-58
2023/07/05 08:24:05;;;;;;;5.97;2.13;;;33.20;13.50;;;;;;5085509;28;20089;-61
2023/07/05 08:26:32;;;;;;;4.18;2.22;;;33.10;13.80;;;;;;5087338;28;20078;-62
2023/07/05 08:28:58;;;;;;;6.53;2.50;;;33.10;13.70;;;;;;5087734;28;20546;-58
2023/07/05 08:31:25;;;;;;;6.85;2.65;;;33.10;13.90;;;;;;5068986;28;20063;-62
2023/07/05 08:33:51;;;;;;;5.22;2.55;;;33.00;13.60;;;;;;5086753;28;20084;-64
2023/07/05 08:36:35;;;;;;;8.73;2.58;;;33.00;14.20;;;;;;5086706;28;20151;-61
2023/07/05 08:39:05;;;;;;;6.03;2.30;;;33.00;13.70;;;;;;5086539;28;20056;-65
2023/07/05 08:41:44;;;;;;;9.07;2.10;;;33.00;13.50;;;;;;5086281;28;20063;-58
2023/07/05 08:44:18;;;;;;;6.88;2.38;;;32.90;13.80;;;;;;5085688;28;20152;-64
2023/07/05 08:46:48;;;;;;;13.35;2.10;;;32.80;14.20;;;;;;5086225;28;20096;-57
2023/07/05 08:49:26;;;;;;;10.65;2.35;;;32.70;14.20;;;;;;5086633;28;20555;-63
2023/07/05 08:51:54;;;;;;;3.47;1.67;;;32.50;14.40;;;;;;5086196;28;20114;-64
2023/07/05 08:54:20;;;;;;;3.88;1.63;;;32.40;14.80;;;;;;5086064;28;20063;-63
2023/07/05 08:56:51;;;;;;;1.45;1.27;;;32.30;14.60;;;;;;5067107;28;20078;-60
2023/07/05 08:59:46;;;;;;;4.13;1.33;;;32.20;15.40;;;;;;5087189;28;20100;-63
2023/07/05 09:02:17;;;;;;;1.55;1.23;;;32.10;15.50;;;;;;5082495;28;20082;-61
2023/07/05 09:04:47;;;;;;;4.97;1.40;;;32.00;15.40;;;;;;5085635;28;20080;-61
2023/07/05 09:07:20;;;;;;;9.77;1.60;;;31.90;15.70;;;;;;5084495;28;20149;-61
2023/07/05 09:10:05;;;;;;;2.25;1.40;;;31.70;16.10;;;;;;5086652;28;20071;-61
2023/07/05 09:12:57;;;;;;;4.93;1.67;;;31.60;16.70;;;;;;5086467;28;20075;-62
2023/07/05 09:15:45;;;;;;;3.75;1.60;;;31.40;16.10;;;;;;5084245;28;20534;-59
2023/07/05 09:18:15;;;;;;;5.10;1.50;;;31.40;16.60;;;;;;5076706;28;20495;-64
2023/07/05 09:20:47;;;;;;;5.90;1.20;;;31.30;16.60;;;;;;5086482;28;20420;-64
2023/07/05 09:23:24;;;;;;;2.20;1.30;;;31.20;16.40;;;;;;5064633;28;20082;-62
2023/07/05 09:25:56;;;;;;;4.28;1.27;;;31.10;16.80;;;;;;5085029;28;20091;-62
2023/07/05 09:28:28;;;;;;;2.20;1.42;;;30.90;16.60;;;;;;5084290;28;20077;-61
2023/07/05 09:30:54;;;;;;;2.38;1.40;;;30.90;17.30;;;;;;5084373;28;20157;-63
2023/07/05 09:33:33;;;;;;;2.08;1.30;;;30.90;16.90;;;;;;5085559;28;20075;-64
2023/07/05 09:36:10;;;;;;;3.55;1.30;;;30.80;16.90;;;;;;5064526;28;20076;-63
2023/07/05 09:38:44;;;;;;;2.03;1.05;;;30.70;17.00;;;;;;5084919;28;20082;-64
2023/07/05 09:41:41;;;;;;;7.28;1.30;;;30.70;16.60;;;;;;5084536;28;20437;-65
2023/07/05 09:44:07;;;;;;;;;;;30.60;17.10;;;;;;5085727;28;20466;-63
2023/07/05 09:46:37;;;;;;;4.77;1.60;;;30.60;16.50;;;;;;5087176;28;20358;-59
2023/07/05 09:49:12;;;;;;;3.55;1.50;;;30.60;16.30;;;;;;5084529;28;20085;-60
2023/07/05 09:51:41;;;;;;;5.55;1.27;;;30.60;16.20;;;;;;5086069;28;20077;-61
2023/07/05 09:54:29;;;;;;;4.47;1.13;;;30.60;15.60;;;;;;5084852;28;20090;-63
2023/07/05 09:57:02;;;;;;;1.40;1.10;;;30.60;15.70;;;;;;5084536;28;20088;-62
2023/07/05 09:59:29;;;;;;;5.90;1.40;;;30.50;15.50;;;;;;5086824;28;20090;-62
2023/07/05 10:02:23;;;;;;;3.10;1.30;;;30.50;15.70;;;;;;5085222;28;20103;-64
2023/07/05 10:04:58;;;;;;;2.00;1.30;;;30.40;16.20;;;;;;5082176;28;20093;-61
2023/07/05 10:07:30;;;;;;;4.15;1.40;;;30.40;16.10;;;;;;5084105;28;20083;-62
2023/07/05 10:10:14;;;;;;;2.30;1.33;;;30.40;15.60;;;;;;5085031;28;20069;-62
2023/07/05 10:12:43;;;;;;;2.40;1.35;;;30.30;15.20;;;;;;5083138;28;20158;-62
2023/07/05 10:15:21;;;;;;;1.83;1.30;;;30.30;15.10;;;;;;5086230;28;20076;-62
2023/07/05 10:17:51;;;;;;;3.63;1.48;;;30.30;15.40;;;;;;5086307;28;20084;-62
2023/07/05 10:20:32;;;;;;;3.60;1.40;;;30.30;15.10;;;;;;5088213;28;20143;-63
2023/07/05 10:23:02;;;;;;;6.85;1.60;;;30.30;14.90;;;;;;5086760;28;20081;-63
2023/07/05 10:25:39;;;;;;;10.70;1.65;;;30.20;14.90;;;;;;5084271;28;20108;-63
2023/07/05 10:28:06;;;;;;;4.90;1.65;;;30.20;14.80;;;;;;5086716;28;20080;-63
2023/07/05 10:30:59;;;;;;;4.93;1.48;;;30.00;15.10;;;;;;5086232;28;20083;-63
2023/07/05 10:33:31;;;;;;;5.97;1.88;;;30.00;15.70;;;;;;5088617;28;20152;-64
2023/07/05 10:36:09;;;;;;;2.70;1.60;;;30.00;15.00;;;;;;5085834;28;20084;-65
2023/07/05 10:38:51;;;;;;;4.45;2.05;;;30.00;14.90;;;;;;5085560;28;20083;-61
2023/07/05 10:41:25;;;;;;;4.80;1.88;;;29.90;15.20;;;;;;5084604;28;20100;-65
2023/07/05 10:44:19;;;;;;;3.10;1.85;;;29.90;15.20;;;;;;5085609;28;20084;-61
2023/07/05 10:46:48;;;;;;;3.53;2.28;;;29.80;15.90;;;;;;5085138;28;20104;-63
2023/07/05 10:49:17;;;;;;;10.88;2.03;;;29.80;15.20;;;;;;5084679;28;20081;-62
2023/07/05 10:51:59;;;;;;;3.90;2.35;;;29.70;15.80;;;;;;5085167;28;20085;-61
2023/07/05 10:54:42;;;;;;;5.47;2.40;;;29.70;15.40;;;;;;5085674;28;20087;-64
2023/07/05 10:57:33;;;;;;;4.22;2.05;;;29.70;15.60;;;;;;5081007;28;20127;-65
2023/07/05 11:00:28;;;;;;;6.18;2.00;;;29.70;15.60;;;;;;5073241;28;20089;-64
2023/07/05 11:03:12;;;;;;;3.65;2.17;;;29.70;16.20;;;;;;5082324;28;20075;-64
2023/07/05 11:05:47;;;;;;;8.77;2.10;;;29.60;16.30;;;;;;5083763;28;20106;-66
2023/07/05 11:08:37;;;;;;;5.55;2.40;;;29.50;16.70;;;;;;5067207;28;20076;-63
2023/07/05 11:11:15;;;;;;;5.97;2.10;;;29.40;16.60;;;;;;5085466;28;20170;-64
2023/07/05 11:13:44;;;;;;;7.13;2.20;;;29.30;16.10;;;;;;5086738;28;20086;-64
2023/07/05 11:16:25;;;;;;;5.10;2.42;;;29.30;17.30;;;;;;5087770;28;20168;-63
2023/07/05 11:19:04;;;;;;;3.92;2.13;;;29.30;17.10;;;;;;5086737;28;20090;-66
2023/07/05 11:21:35;;;;;;;8.23;2.55;;;29.20;17.60;;;;;;5088362;28;20096;-63
2023/07/05 11:24:04;;;;;;;5.63;2.42;;;29.10;17.30;;;;;;5087863;28;20109;-65
2023/07/05 11:26:41;;;;;;;6.20;2.60;;;29.10;16.80;;;;;;5088029;28;20117;-61
2023/07/05 11:29:25;;;;;;;4.05;2.72;;;29.00;16.90;;;;;;5086764;28;20086;-64
2023/07/05 11:32:08;;;;;;;5.03;2.60;;;28.90;17.20;;;;;;5087450;28;20079;-60
2023/07/05 11:34:44;;;;;;;6.22;2.40;;;28.80;19.00;;;;;;5088733;28;20091;-63
2023/07/05 11:37:10;;;;;;;7.37;2.30;;;28.70;19.60;;;;;;5086571;28;20162;-62
2023/07/05 11:39:45;;;;;;;7.03;2.28;;;28.70;18.70;;;;;;5087726;28;20171;-65
2023/07/05 11:42:15;;;;;;;10.52;2.70;;;28.60;20.80;;;;;;5085947;28;20137;-65
2023/07/05 11:44:49;;;;;;;8.30;2.50;;;28.50;19.30;;;;;;5087855;28;20079;-64
2023/07/05 11:47:25;;;;;;;5.97;2.50;;;28.40;18.90;;;;;;5086339;28;20088;-64
2023/07/05 11:50:04;;;;;;;6.07;2.50;;;28.40;19.40;;;;;;5088242;28;20075;-64
2023/07/05 11:52:36;;;;;;;7.10;2.65;;;28.30;18.30;;;;;;5087988;28;20438;-61
2023/07/05 11:55:12;;;;;;;8.38;2.85;;;28.20;18.40;;;;;;5086144;28;20088;-63
2023/07/05 11:57:58;;;;;;;7.65;2.50;;;28.30;18.70;;;;;;5085014;28;20426;-64
2023/07/05 12:00:31;;;;;;;7.47;2.73;;;28.20;20.20;;;;;;5088590;28;20091;-64
2023/07/05 12:02:59;;;;;;;7.32;3.03;;;28.00;20.00;;;;;;5086021;28;20082;-63
2023/07/05 12:05:29;;;;;;;5.82;3.05;;;28.00;19.40;;;;;;5085291;28;20099;-64
2023/07/05 12:08:25;;;;;;;13.80;3.20;;;28.00;18.90;;;;;;5086843;28;20082;-63
2023/07/05 12:10:58;;;;;;;7.13;2.75;;;28.10;19.30;;;;;;5065417;28;20477;-63
2023/07/05 12:13:30;;;;;;;8.07;3.38;;;28.00;19.70;;;;;;5084663;28;20085;-65
2023/07/05 12:15:57;;;;;;;7.65;2.55;;;28.00;20.30;;;;;;5085567;28;20162;-64
2023/07/05 12:18:24;;;;;;;12.77;3.25;;;27.90;19.70;;;;;;5086986;28;20673;-64
2023/07/05 12:20:56;;;;;;;6.15;3.35;;;27.90;20.00;;;;;;5087613;28;20132;-65
2023/07/05 12:23:24;;;;;;;8.68;2.95;;;27.90;19.30;;;;;;5086343;28;20274;-64
2023/07/05 12:26:01;;;;;;;10.13;2.88;;;27.80;19.40;;;;;;5086351;28;20090;-65
2023/07/05 12:28:30;;;;;;;11.25;2.85;;;27.70;19.80;;;;;;5085775;28;20582;-64
2023/07/05 12:31:11;;;;;;;10.18;2.85;;;27.60;20.20;;;;;;5087598;28;20109;-65
2023/07/05 12:33:39;;;;;;;16.00;3.22;;;27.50;21.80;;;;;;5087012;28;20520;-65
2023/07/05 12:36:11;;;;;;;13.38;3.13;;;27.40;21.20;;;;;;5084914;28;20133;-62
2023/07/05 12:38:40;;;;;;;12.50;2.85;;;27.30;20.60;;;;;;5086011;28;20086;-61
2023/07/05 12:41:15;;;;;;;7.85;3.13;;;27.30;20.20;;;;;;5085522;28;20566;-65
2023/07/05 12:43:42;;;;;;;10.00;3.00;;;27.30;20.70;;;;;;5087271;28;20090;-64
2023/07/05 12:46:22;;;;;;;8.05;3.30;;;27.20;20.90;;;;;;5087659;28;20343;-62
2023/07/05 12:48:49;;;;;;;7.72;3.13;;;27.20;22.00;;;;;;5086863;28;20140;-64
2023/07/05 12:51:21;;;;;;;6.78;2.92;;;27.10;21.60;;;;;;5086490;28;20079;-63
2023/07/05 12:53:49;;;;;;;13.27;3.65;;;27.10;21.70;;;;;;5085996;28;20075;-64
2023/07/05 12:56:23;;;;;;;14.90;3.42;;;27.10;22.30;;;;;;5087688;28;20105;-64
2023/07/05 12:58:50;;;;;;;8.95;3.47;;;26.90;22.80;;;;;;5087402;28;21632;-64
2023/07/05 13:01:19;;;;;;;19.02;3.30;;;26.80;23.30;;;;;;5086532;28;20122;-66
2023/07/05 13:03:49;;;;;;;12.90;3.40;;;26.90;23.00;;;;;;5085524;28;20079;-64